createdAt,value
2022-12-01T00:01:23.585Z,97975.60
2022-12-01T00:03:50.419Z,97972.60
2022-12-01T00:06:21.047Z,97974.80
2022-12-01T00:09:09.802Z,97970.20
2022-12-01T00:11:38.742Z,97967.60
2022-12-01T00:14:06.654Z,97967.80
2022-12-01T00:16:34.774Z,97965.00
2022-12-01T00:19:01.712Z,97966.80
2022-12-01T00:21:29.034Z,97963.40
2022-12-01T00:23:58.174Z,97959.00
2022-12-01T00:26:27.705Z,97962.00
2022-12-01T00:28:58.201Z,97959.80
2022-12-01T00:31:26.544Z,97959.00
2022-12-01T00:33:53.816Z,97957.00
2022-12-01T00:36:21.471Z,97962.00
2022-12-01T00:38:51.278Z,97959.60
2022-12-01T00:41:18.313Z,97959.60
2022-12-01T00:43:45.162Z,97954.00
2022-12-01T00:46:12.041Z,97958.00
2022-12-01T00:48:39.058Z,97960.20
2022-12-01T00:51:06.250Z,97960.40
2022-12-01T00:53:33.282Z,97956.40
2022-12-01T00:56:00.361Z,97963.20
2022-12-01T00:58:27.775Z,97967.00
2022-12-01T01:01:01.087Z,97970.80
2022-12-01T01:03:30.066Z,97969.00
2022-12-01T01:06:12.533Z,97971.00
2022-12-01T01:08:40.689Z,97967.20
2022-12-01T01:11:07.875Z,97961.80
2022-12-01T01:13:36.337Z,97960.80
2022-12-01T01:16:13.575Z,97962.40
2022-12-01T01:18:40.481Z,97963.00
2022-12-01T01:21:12.887Z,97958.00
2022-12-01T01:23:40.109Z,97962.20
2022-12-01T01:26:15.126Z,97961.20
2022-12-01T01:28:42.007Z,97961.80
2022-12-01T01:31:13.130Z,97958.00
2022-12-01T01:33:40.703Z,97957.80
2022-12-01T01:36:08.025Z,97964.40
2022-12-01T01:38:35.698Z,97962.20
2022-12-01T01:41:04.369Z,97957.40
2022-12-01T01:43:53.345Z,97960.60
2022-12-01T01:46:30.169Z,97957.40
2022-12-01T01:49:00.337Z,97948.20
2022-12-01T01:51:38.959Z,97948.80
2022-12-01T01:54:26.019Z,97953.00
2022-12-01T01:56:54.842Z,97959.00
2022-12-01T01:59:31.317Z,97955.40
2022-12-01T02:02:06.630Z,97952.80
2022-12-01T02:04:37.846Z,97950.80
2022-12-01T02:07:06.785Z,97950.20
2022-12-01T02:09:33.653Z,97951.40
2022-12-01T02:12:03.186Z,97951.40
2022-12-01T02:14:54.393Z,97947.80
2022-12-01T02:17:41.420Z,97946.80
2022-12-01T02:20:33.654Z,97951.00
2022-12-01T02:23:25.850Z,97946.80
2022-12-01T02:26:27.158Z,97945.20
2022-12-01T02:29:39.662Z,97945.80
2022-12-01T02:32:43.313Z,97939.80
2022-12-01T02:35:29.624Z,97937.40
2022-12-01T02:38:15.019Z,97934.60
2022-12-01T02:40:53.217Z,97937.80
2022-12-01T02:43:33.060Z,97933.80
2022-12-01T02:46:11.870Z,97937.20
2022-12-01T02:48:46.191Z,97939.40
2022-12-01T02:51:29.140Z,97940.80
2022-12-01T02:53:59.558Z,97937.00
2022-12-01T02:56:27.310Z,97937.20
2022-12-01T02:58:54.146Z,97936.80
2022-12-01T03:01:46.089Z,97945.00
2022-12-01T03:05:00.253Z,97946.00
2022-12-01T03:08:01.874Z,97935.20
2022-12-01T03:10:48.804Z,97942.80
2022-12-01T03:13:37.050Z,97933.60
2022-12-01T03:16:38.897Z,97932.00
2022-12-01T03:19:26.949Z,97934.00
2022-12-01T03:22:34.242Z,97935.80
2022-12-01T03:25:03.920Z,97930.00
2022-12-01T03:27:37.742Z,97928.80
2022-12-01T03:30:10.381Z,97928.80
2022-12-01T03:33:01.127Z,97927.40
2022-12-01T03:35:43.136Z,97923.00
2022-12-01T03:38:21.865Z,97921.60
2022-12-01T03:40:53.750Z,97923.20
2022-12-01T03:43:31.550Z,97921.40
2022-12-01T03:46:09.091Z,97926.80
2022-12-01T03:48:38.703Z,97925.40
2022-12-01T03:51:25.625Z,97926.20
2022-12-01T03:54:03.427Z,97923.60
2022-12-01T03:56:42.344Z,97924.40
2022-12-01T03:59:10.511Z,97927.80
2022-12-01T04:01:37.743Z,97925.00
2022-12-01T04:04:12.708Z,97923.40
2022-12-01T04:06:43.435Z,97922.60
2022-12-01T04:09:10.700Z,97925.00
2022-12-01T04:11:56.173Z,97922.40
2022-12-01T04:14:23.222Z,97926.00
2022-12-01T04:16:50.267Z,97927.20
2022-12-01T04:19:17.107Z,97929.20
2022-12-01T04:21:43.950Z,97922.80
2022-12-01T04:24:13.022Z,97925.40
2022-12-01T04:26:40.196Z,97925.00
2022-12-01T04:29:10.240Z,97930.00
2022-12-01T04:31:37.235Z,97932.40
2022-12-01T04:34:05.467Z,97936.40
2022-12-01T04:36:34.265Z,97935.20
2022-12-01T04:39:02.077Z,97937.40
2022-12-01T04:41:29.046Z,97943.80
2022-12-01T04:43:56.822Z,97936.00
2022-12-01T04:46:25.363Z,97935.00
2022-12-01T04:48:52.327Z,97938.40
2022-12-01T04:51:19.829Z,97933.00
2022-12-01T04:53:46.826Z,97935.80
2022-12-01T04:56:13.667Z,97936.60
2022-12-01T04:58:41.290Z,97933.40
2022-12-01T05:01:12.781Z,97932.40
2022-12-01T05:03:43.421Z,97935.20
2022-12-01T05:06:15.064Z,97934.20
2022-12-01T05:08:42.112Z,97936.20
2022-12-01T05:11:11.872Z,97937.00
2022-12-01T05:13:41.802Z,97940.60
2022-12-01T05:16:24.681Z,97940.00
2022-12-01T05:19:17.325Z,97942.40
2022-12-01T05:21:47.535Z,97936.40
2022-12-01T05:24:15.948Z,97938.80
2022-12-01T05:26:44.998Z,97941.40
2022-12-01T05:29:13.923Z,97942.40
2022-12-01T05:31:41.200Z,97945.20
2022-12-01T05:34:09.011Z,97946.20
2022-12-01T05:36:36.504Z,97943.20
2022-12-01T05:39:04.737Z,97945.20
2022-12-01T05:41:31.891Z,97942.60
2022-12-01T05:43:58.732Z,97943.40
2022-12-01T05:46:25.719Z,97944.00
2022-12-01T05:48:52.619Z,97944.40
2022-12-01T05:51:19.569Z,97945.20
2022-12-01T05:53:46.507Z,97946.60
2022-12-01T05:56:13.443Z,97951.40
2022-12-01T05:58:40.563Z,97950.80
2022-12-01T06:01:07.679Z,97952.20
2022-12-01T06:03:34.438Z,97950.40
2022-12-01T06:06:01.950Z,97950.00
2022-12-01T06:08:28.880Z,97950.60
2022-12-01T06:10:55.735Z,97959.60
2022-12-01T06:13:23.005Z,97959.80
2022-12-01T06:15:58.473Z,97958.40
2022-12-01T06:18:27.227Z,97962.60
2022-12-01T06:20:53.985Z,97959.20
2022-12-01T06:23:21.132Z,97964.00
2022-12-01T06:25:48.461Z,97964.80
2022-12-01T06:28:15.843Z,97965.20
2022-12-01T06:30:43.683Z,97966.40
2022-12-01T06:33:10.638Z,97960.00
2022-12-01T06:35:38.103Z,97962.00
2022-12-01T06:38:05.321Z,97964.60
2022-12-01T06:40:32.582Z,97965.40
2022-12-01T06:43:02.810Z,97966.00
2022-12-01T06:45:31.896Z,97964.60
2022-12-01T06:47:58.975Z,97967.80
2022-12-01T06:50:26.100Z,97969.20
2022-12-01T06:52:53.352Z,97969.60
2022-12-01T06:55:20.501Z,97974.60
2022-12-01T06:57:47.824Z,97976.80
2022-12-01T07:00:16.139Z,97980.40
2022-12-01T07:02:43.222Z,97983.00
2022-12-01T07:05:10.725Z,97982.20
2022-12-01T07:07:40.095Z,97988.00
2022-12-01T07:10:10.019Z,97991.20
2022-12-01T07:12:37.542Z,97989.60
2022-12-01T07:15:07.005Z,97995.80
2022-12-01T07:17:35.469Z,97994.80
2022-12-01T07:20:02.393Z,97998.20
2022-12-01T07:22:32.651Z,97996.40
2022-12-01T07:24:59.920Z,97997.40
2022-12-01T07:27:30.854Z,98000.60
2022-12-01T07:29:58.206Z,98001.80
2022-12-01T07:32:25.048Z,98001.20
2022-12-01T07:34:51.985Z,98003.40
2022-12-01T07:37:18.937Z,98002.80
2022-12-01T07:39:45.784Z,98006.60
2022-12-01T07:42:12.625Z,98011.40
2022-12-01T07:44:39.429Z,98010.80
2022-12-01T07:47:06.262Z,98007.60
2022-12-01T07:49:34.480Z,98008.80
2022-12-01T07:52:01.382Z,98006.60
2022-12-01T07:54:28.473Z,98009.20
2022-12-01T07:56:55.268Z,98006.20
2022-12-01T07:59:22.158Z,98002.60
2022-12-01T08:01:49.177Z,98004.00
2022-12-01T08:04:16.046Z,98011.00
2022-12-01T08:06:43.008Z,98006.40
2022-12-01T08:09:09.930Z,98005.40
2022-12-01T08:11:36.881Z,98004.40
2022-12-01T08:14:03.798Z,98004.20
2022-12-01T08:16:31.493Z,98003.00
2022-12-01T08:18:58.773Z,97999.60
2022-12-01T08:21:26.094Z,97994.40
2022-12-01T08:23:55.833Z,98001.40
2022-12-01T08:26:25.718Z,98009.60
2022-12-01T08:28:52.967Z,98007.40
2022-12-01T08:31:31.402Z,98011.40
2022-12-01T08:33:59.167Z,98012.60
2022-12-01T08:36:26.498Z,98015.00
2022-12-01T08:38:55.857Z,98011.80
2022-12-01T08:41:24.725Z,98008.40
2022-12-01T08:44:08.850Z,98004.80
2022-12-01T08:46:36.653Z,98002.60
2022-12-01T08:49:05.815Z,98007.80
2022-12-01T08:51:33.460Z,98008.40
2022-12-01T08:54:00.916Z,98017.20
2022-12-01T08:56:33.991Z,98012.20
2022-12-01T08:59:01.358Z,98012.60
2022-12-01T09:01:29.321Z,98008.80
2022-12-01T09:04:08.908Z,98006.00
2022-12-01T09:06:43.170Z,98013.60
2022-12-01T09:09:14.942Z,98013.40
2022-12-01T09:11:45.742Z,98012.60
2022-12-01T09:14:15.729Z,98020.40
2022-12-01T09:16:45.044Z,98023.40
2022-12-01T09:19:13.553Z,98023.00
2022-12-01T09:21:43.384Z,98021.60
2022-12-01T09:24:12.876Z,98022.40
2022-12-01T09:26:40.461Z,98026.60
2022-12-01T09:29:10.676Z,98021.20
2022-12-01T09:31:38.141Z,98023.00
2022-12-01T09:34:12.043Z,98009.40
2022-12-01T09:36:39.805Z,98011.00
2022-12-01T09:39:13.292Z,98010.80
2022-12-01T09:41:53.064Z,98008.40
2022-12-01T09:44:30.441Z,98013.60
2022-12-01T09:47:11.884Z,98008.80
2022-12-01T09:50:05.083Z,98009.40
2022-12-01T09:52:47.828Z,98003.80
2022-12-01T09:55:19.093Z,98009.60
2022-12-01T09:57:56.547Z,98004.40
2022-12-01T10:00:36.740Z,98004.40
2022-12-01T10:03:09.971Z,97998.00
2022-12-01T10:06:25.830Z,97996.80
2022-12-01T10:09:02.528Z,97993.00
2022-12-01T10:11:39.781Z,97993.20
2022-12-01T10:14:20.181Z,97992.20
2022-12-01T10:17:13.655Z,97994.80
2022-12-01T10:19:52.905Z,97993.60
2022-12-01T10:22:42.138Z,97976.80
2022-12-01T10:25:34.700Z,97983.40
2022-12-01T10:28:45.706Z,97981.80
2022-12-01T10:31:26.355Z,97981.20
2022-12-01T10:34:28.128Z,97980.60
2022-12-01T10:36:57.221Z,97985.00
2022-12-01T10:39:31.722Z,97984.60
2022-12-01T10:42:27.136Z,97981.40
2022-12-01T10:44:57.511Z,97985.00
2022-12-01T10:47:28.079Z,97975.00
2022-12-01T10:49:56.296Z,97967.20
2022-12-01T10:52:38.127Z,97964.00
2022-12-01T10:55:23.362Z,97963.60
2022-12-01T10:57:53.906Z,97968.60
2022-12-01T11:00:58.620Z,97969.00
2022-12-01T11:03:26.488Z,97970.60
2022-12-01T11:05:58.749Z,97966.80
2022-12-01T11:08:50.742Z,97961.40
2022-12-01T11:11:27.661Z,97961.40
2022-12-01T11:13:56.927Z,97950.20
2022-12-01T11:16:40.447Z,97953.40
2022-12-01T11:19:32.801Z,97949.60
2022-12-01T11:22:03.294Z,97943.00
2022-12-01T11:24:43.964Z,97945.40
2022-12-01T11:27:22.505Z,97948.60
2022-12-01T11:29:54.737Z,97946.80
2022-12-01T11:32:34.429Z,97944.00
2022-12-01T11:35:22.466Z,97943.60
2022-12-01T11:38:27.696Z,97937.60
2022-12-01T11:40:49.705Z,97930.20
2022-12-01T11:43:35.185Z,97931.20
2022-12-01T11:46:09.288Z,97931.00
2022-12-01T11:48:36.833Z,97932.40
2022-12-01T11:51:19.236Z,97931.60
2022-12-01T11:53:46.293Z,97931.20
2022-12-01T11:56:12.974Z,97927.80
2022-12-01T11:58:40.950Z,97926.60
2022-12-01T12:01:52.945Z,97934.00
2022-12-01T12:04:48.363Z,97933.40
2022-12-01T12:07:42.614Z,97936.40
2022-12-01T12:10:30.510Z,97930.00
2022-12-01T12:13:19.931Z,97924.40
2022-12-01T12:15:58.679Z,97927.20
2022-12-01T12:19:15.376Z,97918.40
2022-12-01T12:22:06.239Z,97919.40
2022-12-01T12:24:58.137Z,97920.60
2022-12-01T12:27:41.430Z,97924.80
2022-12-01T12:30:47.808Z,97922.40
2022-12-01T12:33:22.344Z,97916.60
2022-12-01T12:36:01.246Z,97910.60
2022-12-01T12:39:17.498Z,97909.40
2022-12-01T12:41:56.834Z,97903.20
2022-12-01T12:44:43.514Z,97906.40
2022-12-01T12:47:53.053Z,97906.80
2022-12-01T12:51:00.963Z,97907.60
2022-12-01T12:53:40.239Z,97907.00
2022-12-01T12:56:14.084Z,97908.20
2022-12-01T12:59:07.530Z,97905.20
2022-12-01T13:01:42.314Z,97900.00
2022-12-01T13:04:35.045Z,97892.20
2022-12-01T13:07:28.497Z,97893.80
2022-12-01T13:10:09.481Z,97896.80
2022-12-01T13:12:45.143Z,97899.60
2022-12-01T13:15:22.276Z,97895.00
2022-12-01T13:18:35.765Z,97893.40
2022-12-01T13:21:04.887Z,97891.20
2022-12-01T13:23:33.876Z,97894.40
2022-12-01T13:26:08.148Z,97885.40
2022-12-01T13:28:53.906Z,97894.00
2022-12-01T13:31:22.525Z,97893.20
2022-12-01T13:34:03.057Z,97898.60
2022-12-01T13:36:48.157Z,97890.00
2022-12-01T13:39:29.440Z,97891.40
2022-12-01T13:42:24.051Z,97893.80
2022-12-01T13:45:00.308Z,97898.60
2022-12-01T13:47:50.531Z,97900.00
2022-12-01T13:50:36.679Z,97895.00
2022-12-01T13:53:25.333Z,97894.00
2022-12-01T13:56:05.621Z,97895.60
2022-12-01T13:58:32.637Z,97896.40
2022-12-01T14:01:21.982Z,97895.80
2022-12-01T14:03:57.465Z,97888.80
2022-12-01T14:06:46.514Z,97893.60
2022-12-01T14:09:33.337Z,97888.60
2022-12-01T14:12:14.297Z,97900.00
2022-12-01T14:15:20.566Z,97891.80
2022-12-01T14:17:57.733Z,97887.00
2022-12-01T14:20:27.698Z,97891.20
2022-12-01T14:23:29.137Z,97894.20
2022-12-01T14:26:05.311Z,97892.20
2022-12-01T14:29:24.246Z,97899.20
2022-12-01T14:31:50.979Z,97897.00
2022-12-01T14:34:26.753Z,97904.40
2022-12-01T14:37:18.458Z,97894.60
2022-12-01T14:39:58.317Z,97904.40
2022-12-01T14:43:00.270Z,97897.80
2022-12-01T14:45:39.049Z,97899.20
2022-12-01T14:48:17.101Z,97897.00
2022-12-01T14:51:00.820Z,97899.00
2022-12-01T14:53:34.005Z,97900.00
2022-12-01T14:56:13.053Z,97899.20
2022-12-01T14:58:53.258Z,97911.20
2022-12-01T15:01:23.061Z,97899.20
2022-12-01T15:03:59.346Z,97911.80
2022-12-01T15:06:30.098Z,97893.00
2022-12-01T15:12:03.789Z,97915.40
2022-12-01T15:14:36.781Z,97914.80
2022-12-01T15:17:08.909Z,97909.40
2022-12-01T15:19:41.489Z,97913.80
2022-12-01T15:22:17.896Z,97911.40
2022-12-01T15:24:45.931Z,97918.20
2022-12-01T15:27:32.826Z,97903.00
2022-12-01T15:30:04.587Z,97909.20
2022-12-01T15:32:38.086Z,97911.40
2022-12-01T15:35:07.493Z,97917.00
2022-12-01T15:37:44.083Z,97920.40
2022-12-01T15:43:16.592Z,97915.00
2022-12-01T15:46:11.089Z,97918.20
2022-12-01T15:48:39.091Z,97914.60
2022-12-01T15:51:26.835Z,97926.80
2022-12-01T15:54:01.124Z,97928.00
2022-12-01T15:56:33.129Z,97928.80
2022-12-01T15:59:27.494Z,97927.60
2022-12-01T16:01:54.781Z,97932.40
2022-12-01T16:04:26.637Z,97933.20
2022-12-01T16:07:05.533Z,97929.20
2022-12-01T16:09:58.889Z,97930.80
2022-12-01T16:12:28.957Z,97933.60
2022-12-01T16:15:01.599Z,97939.80
2022-12-01T16:17:44.627Z,97946.40
2022-12-01T16:20:34.007Z,97945.40
2022-12-01T16:23:05.606Z,97944.60
2022-12-01T16:25:44.248Z,97949.20
2022-12-01T16:28:35.684Z,97949.80
2022-12-01T16:31:05.770Z,97949.40
2022-12-01T16:33:38.464Z,97948.20
2022-12-01T16:36:05.851Z,97944.60
2022-12-01T16:38:32.680Z,97945.60
2022-12-01T16:41:01.962Z,97947.80
2022-12-01T16:43:29.947Z,97950.00
2022-12-01T16:46:06.853Z,97949.80
2022-12-01T16:48:35.015Z,97951.20
2022-12-01T16:51:04.003Z,97954.80
2022-12-01T16:53:31.549Z,97950.40
2022-12-01T16:56:03.421Z,97958.20
2022-12-01T16:58:30.557Z,97952.80
2022-12-01T17:00:57.965Z,97953.40
2022-12-01T17:03:28.459Z,97943.40
2022-12-01T17:06:02.245Z,97947.20
2022-12-01T17:08:31.220Z,97951.80
2022-12-01T17:10:58.914Z,97961.20
2022-12-01T17:13:26.181Z,97958.60
2022-12-01T17:15:55.545Z,97956.00
2022-12-01T17:18:25.265Z,97955.40
2022-12-01T17:21:05.212Z,97959.20
2022-12-01T17:23:33.145Z,97957.00
2022-12-01T17:26:01.404Z,97960.80
2022-12-01T17:28:28.914Z,97950.60
2022-12-01T17:31:01.542Z,97952.40
2022-12-01T17:33:29.063Z,97953.80
2022-12-01T17:36:20.575Z,97953.80
2022-12-01T17:38:48.538Z,97963.20
2022-12-01T17:41:22.121Z,97957.20
2022-12-01T17:43:49.503Z,97961.20
2022-12-01T17:46:17.940Z,97955.80
2022-12-01T17:48:47.564Z,97954.60
2022-12-01T17:51:16.488Z,97938.00
2022-12-01T17:53:43.931Z,97958.40
2022-12-01T17:56:14.308Z,97954.20
2022-12-01T17:58:42.765Z,97951.60
2022-12-01T18:01:16.750Z,97952.80
2022-12-01T18:03:44.921Z,97949.20
2022-12-01T18:06:13.484Z,97948.00
2022-12-01T18:08:42.562Z,97948.00
2022-12-01T18:11:15.386Z,97949.20
2022-12-01T18:13:49.232Z,97951.40
2022-12-01T18:16:26.436Z,97945.80
2022-12-01T18:19:02.006Z,97949.60
2022-12-01T18:21:29.685Z,97952.60
2022-12-01T18:24:03.638Z,97954.40
2022-12-01T18:26:34.156Z,97944.60
2022-12-01T18:29:12.141Z,97952.20
2022-12-01T18:31:40.689Z,97960.20
2022-12-01T18:34:11.779Z,97956.80
2022-12-01T18:36:41.648Z,97952.20
2022-12-01T18:39:10.892Z,97956.40
2022-12-01T18:41:38.962Z,97957.20
2022-12-01T18:44:06.879Z,97961.20
2022-12-01T18:46:34.209Z,97958.00
2022-12-01T18:49:03.080Z,97962.00
2022-12-01T18:51:37.222Z,97956.00
2022-12-01T18:54:08.110Z,97959.60
2022-12-01T18:56:36.845Z,97960.00
2022-12-01T18:59:07.854Z,97957.00
2022-12-01T19:01:40.209Z,97955.80
2022-12-01T19:04:09.776Z,97955.00
2022-12-01T19:06:40.448Z,97950.00
2022-12-01T19:09:10.582Z,97938.40
2022-12-01T19:11:41.721Z,97942.40
2022-12-01T19:14:16.965Z,97943.20
2022-12-01T19:16:46.752Z,97940.40
2022-12-01T19:19:14.420Z,97939.80
2022-12-01T19:21:43.092Z,97931.00
2022-12-01T19:24:10.520Z,97934.80
2022-12-01T19:26:37.859Z,97935.00
2022-12-01T19:29:06.093Z,97935.40
2022-12-01T19:31:33.410Z,97937.00
2022-12-01T19:34:04.162Z,97938.00
2022-12-01T19:36:31.976Z,97943.20
2022-12-01T19:39:04.043Z,97943.80
2022-12-01T19:41:37.583Z,97945.40
2022-12-01T19:44:05.329Z,97939.40
2022-12-01T19:46:32.630Z,97940.40
2022-12-01T19:49:02.408Z,97940.00
2022-12-01T19:51:40.280Z,97941.80
2022-12-01T19:54:15.594Z,97940.20
2022-12-01T19:56:43.531Z,97941.60
2022-12-01T19:59:13.595Z,97941.80
2022-12-01T20:01:42.809Z,97942.60
2022-12-01T20:04:09.871Z,97935.40
2022-12-01T20:06:37.964Z,97933.40
2022-12-01T20:09:06.428Z,97933.60
2022-12-01T20:11:35.522Z,97935.20
2022-12-01T20:14:07.820Z,97936.60
2022-12-01T20:16:36.275Z,97935.60
2022-12-01T20:19:05.252Z,97936.60
2022-12-01T20:21:39.526Z,97936.20
2022-12-01T20:24:10.409Z,97934.40
2022-12-01T20:26:42.771Z,97941.00
2022-12-01T20:29:19.182Z,97937.20
2022-12-01T20:31:48.543Z,97938.20
2022-12-01T20:34:31.198Z,97935.00
2022-12-01T20:36:59.260Z,97933.40
2022-12-01T20:39:27.424Z,97932.80
2022-12-01T20:41:55.185Z,97926.60
2022-12-01T20:44:22.644Z,97927.80
2022-12-01T20:46:50.303Z,97931.20
2022-12-01T20:49:18.767Z,97924.00
2022-12-01T20:51:47.667Z,97920.20
2022-12-01T20:54:32.968Z,97925.60
2022-12-01T20:57:01.412Z,97927.80
2022-12-01T20:59:29.619Z,97926.80
2022-12-01T21:01:57.405Z,97925.00
2022-12-01T21:04:24.586Z,97930.00
2022-12-01T21:06:55.862Z,97928.40
2022-12-01T21:09:24.156Z,97923.80
2022-12-01T21:12:10.488Z,97924.80
2022-12-01T21:14:44.850Z,97921.80
2022-12-01T21:17:39.347Z,97923.40
2022-12-01T21:20:22.054Z,97920.60
2022-12-01T21:22:51.181Z,97922.60
2022-12-01T21:25:23.938Z,97929.60
2022-12-01T21:27:51.459Z,97929.20
2022-12-01T21:30:22.690Z,97927.80
2022-12-01T21:32:50.201Z,97928.40
2022-12-01T21:35:27.621Z,97928.40
2022-12-01T21:38:02.001Z,97929.40
2022-12-01T21:40:31.521Z,97933.60
2022-12-01T21:43:13.821Z,97932.20
2022-12-01T21:45:40.688Z,97931.40
2022-12-01T21:48:21.319Z,97937.80
2022-12-01T21:50:53.836Z,97935.40
2022-12-01T21:53:21.801Z,97936.80
2022-12-01T21:55:49.437Z,97937.80
2022-12-01T21:58:28.164Z,97938.40
2022-12-01T22:00:58.489Z,97938.80
2022-12-01T22:03:31.872Z,97933.80
2022-12-01T22:06:31.157Z,97941.00
2022-12-01T22:09:02.641Z,97939.80
2022-12-01T22:11:31.405Z,97935.80
2022-12-01T22:14:21.281Z,97931.20
2022-12-01T22:17:21.515Z,97932.60
2022-12-01T22:20:02.375Z,97934.60
2022-12-01T22:22:32.615Z,97931.40
2022-12-01T22:25:24.365Z,97934.60
2022-12-01T22:27:52.039Z,97930.40
2022-12-01T22:30:22.950Z,97929.80
2022-12-01T22:33:05.561Z,97927.60
2022-12-01T22:35:53.183Z,97928.00
2022-12-01T22:38:37.637Z,97926.40
2022-12-01T22:41:14.191Z,97925.80
2022-12-01T22:43:50.756Z,97926.60
2022-12-01T22:46:37.566Z,97923.80
2022-12-01T22:49:10.217Z,97921.20
2022-12-01T22:51:45.196Z,97917.60
2022-12-01T22:54:14.743Z,97917.20
2022-12-01T22:56:47.095Z,97919.80
2022-12-01T22:59:27.943Z,97920.00
2022-12-01T23:02:01.802Z,97923.60
2022-12-01T23:04:34.654Z,97920.80
2022-12-01T23:07:26.545Z,97919.40
2022-12-01T23:10:05.897Z,97919.60
2022-12-01T23:12:35.326Z,97924.40
2022-12-01T23:15:34.671Z,97921.40
2022-12-01T23:18:21.004Z,97917.60
2022-12-01T23:20:57.397Z,97922.00
2022-12-01T23:23:31.266Z,97923.80
2022-12-01T23:26:02.016Z,97920.80
2022-12-01T23:28:30.907Z,97920.60
2022-12-01T23:30:59.886Z,97922.00
2022-12-01T23:33:33.814Z,97923.80
2022-12-01T23:36:12.108Z,97913.80
2022-12-01T23:38:46.736Z,97916.40
2022-12-01T23:41:30.784Z,97924.20
2022-12-01T23:44:03.658Z,97919.60
2022-12-01T23:46:32.328Z,97922.60
2022-12-01T23:49:07.263Z,97926.80
2022-12-01T23:51:55.661Z,97922.00
2022-12-01T23:54:34.952Z,97924.00
2022-12-01T23:57:23.134Z,97919.40
2022-12-01T23:59:58.935Z,97917.40
